sensor_id;sensor_type;location;lat;lon;timestamp;pressure;altitude;pressure_sealevel;temperature;humidity
1616;BME280;801;47.982;7.810;2022-10-31T03:31:10;98988.75;;;12.84;100.00
1616;BME280;801;47.982;7.810;2022-10-31T03:33:39;98989.00;;;12.73;100.00
1616;BME280;801;47.982;7.810;2022-10-31T03:36:08;98991.97;;;12.76;100.00
1616;BME280;801;47.982;7.810;2022-10-31T03:38:38;98990.13;;;12.87;100.00
1616;BME280;801;47.982;7.810;2022-10-31T03:41:11;98988.47;;;12.81;100.00
1616;BME280;801;47.982;7.810;2022-10-31T03:43:42;98988.75;;;12.84;100.00
1616;BME280;801;47.982;7.810;2022-10-31T03:46:13;98988.44;;;12.71;100.00
1616;BME280;801;47.982;7.810;2022-10-31T03:48:40;98990.91;;;12.77;100.00
1616;BME280;801;47.982;7.810;2022-10-31T03:51:10;98992.22;;;12.75;100.00
1616;BME280;801;47.982;7.810;2022-10-31T03:53:45;98995.94;;;12.63;100.00
1616;BME280;801;47.982;7.810;2022-10-31T03:56:20;98996.00;;;12.79;100.00
1616;BME280;801;47.982;7.810;2022-10-31T03:58:53;98994.09;;;12.64;100.00
1616;BME280;801;47.982;7.810;2022-10-31T04:01:26;98985.81;;;12.86;100.00
1616;BME280;801;47.982;7.810;2022-10-31T04:03:56;98993.31;;;12.79;100.00
1616;BME280;801;47.982;7.810;2022-10-31T04:06:24;98985.22;;;12.79;100.00
1616;BME280;801;47.982;7.810;2022-10-31T04:08:54;98982.22;;;12.65;100.00
1616;BME280;801;47.982;7.810;2022-10-31T04:11:25;98981.41;;;12.59;100.00
1616;BME280;801;47.982;7.810;2022-10-31T04:13:55;98983.56;;;12.57;100.00
1616;BME280;801;47.982;7.810;2022-10-31T04:16:25;98980.84;;;12.57;100.00
1616;BME280;801;47.982;7.810;2022-10-31T04:18:52;98984.34;;;12.58;100.00
1616;BME280;801;47.982;7.810;2022-10-31T04:21:19;98975.47;;;12.62;100.00
1616;BME280;801;47.982;7.810;2022-10-31T04:23:45;98971.28;;;12.29;100.00
1616;BME280;801;47.982;7.810;2022-10-31T04:26:12;98982.59;;;12.26;100.00
1616;BME280;801;47.982;7.810;2022-10-31T04:28:39;98986.88;;;12.22;100.00
1616;BME280;801;47.982;7.810;2022-10-31T04:31:06;98979.34;;;12.24;100.00
1616;BME280;801;47.982;7.810;2022-10-31T04:33:33;98981.81;;;12.36;100.00
1616;BME280;801;47.982;7.810;2022-10-31T04:36:00;98983.50;;;12.47;100.00
1616;BME280;801;47.982;7.810;2022-10-31T04:38:26;98985.69;;;12.55;100.00
1616;BME280;801;47.982;7.810;2022-10-31T04:40:53;98983.56;;;12.57;100.00
1616;BME280;801;47.982;7.810;2022-10-31T04:43:19;98980.16;;;12.30;100.00
1616;BME280;801;47.982;7.810;2022-10-31T04:45:46;98972.03;;;11.77;100.00
1616;BME280;801;47.982;7.810;2022-10-31T04:48:13;98984.44;;;12.20;100.00
1616;BME280;801;47.982;7.810;2022-10-31T04:50:41;98974.19;;;11.80;100.00
1616;BME280;801;47.982;7.810;2022-10-31T04:53:07;98980.03;;;11.99;100.00
1616;BME280;801;47.982;7.810;2022-10-31T04:55:35;98985.13;;;12.00;100.00
1616;BME280;801;47.982;7.810;2022-10-31T04:58:02;98986.53;;;12.08;100.00
1616;BME280;801;47.982;7.810;2022-10-31T05:00:29;98981.47;;;12.17;100.00
1616;BME280;801;47.982;7.810;2022-10-31T05:02:57;98979.84;;;12.21;100.00
1616;BME280;801;47.982;7.810;2022-10-31T05:05:25;98981.75;;;12.25;100.00
1616;BME280;801;47.982;7.810;2022-10-31T05:07:53;98985.31;;;12.31;100.00
1616;BME280;801;47.982;7.810;2022-10-31T05:10:22;98972.09;;;12.30;100.00
1616;BME280;801;47.982;7.810;2022-10-31T05:12:50;98980.97;;;12.25;100.00
1616;BME280;801;47.982;7.810;2022-10-31T05:15:18;98980.13;;;12.19;100.00
1616;BME280;801;47.982;7.810;2022-10-31T05:17:45;98977.41;;;12.14;100.00
1616;BME280;801;47.982;7.810;2022-10-31T05:20:13;98981.25;;;12.23;100.00
1616;BME280;801;47.982;7.810;2022-10-31T05:22:42;98977.72;;;12.23;100.00
1616;BME280;801;47.982;7.810;2022-10-31T05:25:10;98973.03;;;12.03;100.00
1616;BME280;801;47.982;7.810;2022-10-31T05:27:38;98984.44;;;11.83;100.00
1616;BME280;801;47.982;7.810;2022-10-31T05:30:06;98977.38;;;12.09;100.00
1616;BME280;801;47.982;7.810;2022-10-31T05:32:37;98977.16;;;12.21;100.00
1616;BME280;801;47.982;7.810;2022-10-31T05:35:04;98971.53;;;12.22;100.00
1616;BME280;801;47.982;7.810;2022-10-31T05:37:33;98980.69;;;12.21;100.00
1616;BME280;801;47.982;7.810;2022-10-31T05:39:59;98969.69;;;12.28;100.00
1616;BME280;801;47.982;7.810;2022-10-31T05:42:27;98974.84;;;12.35;100.00
1616;BME280;801;47.982;7.810;2022-10-31T05:44:53;98978.00;;;12.27;100.00
1616;BME280;801;47.982;7.810;2022-10-31T05:47:20;98978.78;;;12.22;100.00
1616;BME280;801;47.982;7.810;2022-10-31T05:49:46;98969.03;;;12.11;100.00
1616;BME280;801;47.982;7.810;2022-10-31T05:52:13;98970.16;;;12.20;100.00
1616;BME280;801;47.982;7.810;2022-10-31T05:54:40;98963.38;;;12.12;100.00
1616;BME280;801;47.982;7.810;2022-10-31T05:57:06;98969.06;;;12.21;100.00
1616;BME280;801;47.982;7.810;2022-10-31T05:59:34;98979.06;;;12.20;100.00
1616;BME280;801;47.982;7.810;2022-10-31T06:02:01;98977.13;;;12.11;100.00
1616;BME280;801;47.982;7.810;2022-10-31T06:04:27;98975.78;;;12.13;100.00
1616;BME280;801;47.982;7.810;2022-10-31T06:06:54;98973.63;;;12.10;100.00
1616;BME280;801;47.982;7.810;2022-10-31T06:09:20;98967.22;;;12.27;100.00
1616;BME280;801;47.982;7.810;2022-10-31T06:11:47;98978.00;;;12.27;100.00
1616;BME280;801;47.982;7.810;2022-10-31T06:14:13;98974.00;;;12.34;100.00
1616;BME280;801;47.982;7.810;2022-10-31T06:16:44;98973.25;;;12.44;100.00
1616;BME280;801;47.982;7.810;2022-10-31T06:19:10;98972.47;;;12.54;100.00
1616;BME280;801;47.982;7.810;2022-10-31T06:21:37;98962.47;;;12.44;100.00
1616;BME280;801;47.982;7.810;2022-10-31T06:24:04;98964.53;;;12.27;100.00
1616;BME280;801;47.982;7.810;2022-10-31T06:26:31;98965.53;;;12.10;100.00
1616;BME280;801;47.982;7.810;2022-10-31T06:28:57;98969.91;;;12.21;100.00
1616;BME280;801;47.982;7.810;2022-10-31T06:31:24;98969.88;;;12.16;100.00
1616;BME280;801;47.982;7.810;2022-10-31T06:33:51;98962.09;;;12.25;100.00
1616;BME280;801;47.982;7.810;2022-10-31T06:36:18;98964.78;;;12.25;100.00
1616;BME280;801;47.982;7.810;2022-10-31T06:38:44;98960.75;;;12.22;100.00
1616;BME280;801;47.982;7.810;2022-10-31T06:41:11;98962.09;;;12.25;100.00
1616;BME280;801;47.982;7.810;2022-10-31T06:43:37;98962.94;;;12.31;100.00
1616;BME280;801;47.982;7.810;2022-10-31T06:46:05;98960.28;;;12.36;100.00
1616;BME280;801;47.982;7.810;2022-10-31T06:48:32;98961.06;;;12.36;100.00
1616;BME280;801;47.982;7.810;2022-10-31T06:51:02;98962.94;;;12.31;100.00
1616;BME280;801;47.982;7.810;2022-10-31T06:53:28;98951.72;;;12.54;100.00
1616;BME280;801;47.982;7.810;2022-10-31T06:55:56;98956.06;;;12.60;100.00
1616;BME280;801;47.982;7.810;2022-10-31T06:58:23;98962.28;;;12.66;100.00
1616;BME280;801;47.982;7.810;2022-10-31T07:00:49;98966.34;;;12.69;100.00
1616;BME280;801;47.982;7.810;2022-10-31T07:03:16;98964.69;;;12.62;100.00
1616;BME280;801;47.982;7.810;2022-10-31T07:05:43;98960.16;;;12.78;100.00
1616;BME280;801;47.982;7.810;2022-10-31T07:08:12;98960.19;;;12.94;100.00
1616;BME280;801;47.982;7.810;2022-10-31T07:10:40;98968.56;;;13.07;100.00
1616;BME280;801;47.982;7.810;2022-10-31T07:13:10;98972.66;;;13.25;100.00
1616;BME280;801;47.982;7.810;2022-10-31T07:15:40;98973.50;;;13.36;100.00
1616;BME280;801;47.982;7.810;2022-10-31T07:18:09;98984.84;;;13.54;100.00
1616;BME280;801;47.982;7.810;2022-10-31T07:20:36;98985.66;;;13.49;100.00
1616;BME280;801;47.982;7.810;2022-10-31T07:23:03;98985.38;;;13.66;100.00
1616;BME280;801;47.982;7.810;2022-10-31T07:25:31;98990.22;;;13.79;100.00
1616;BME280;801;47.982;7.810;2022-10-31T07:27:57;98997.25;;;13.75;100.00
1616;BME280;801;47.982;7.810;2022-10-31T07:30:24;98995.66;;;13.84;100.00
1616;BME280;801;47.982;7.810;2022-10-31T07:32:51;98994.81;;;13.84;100.00
1616;BME280;801;47.982;7.810;2022-10-31T07:35:18;99005.63;;;13.84;100.00
1616;BME280;801;47.982;7.810;2022-10-31T07:37:45;99007.50;;;13.99;100.00
1616;BME280;801;47.982;7.810;2022-10-31T07:40:12;99006.94;;;14.12;100.00
1616;BME280;801;47.982;7.810;2022-10-31T07:42:41;99010.47;;;14.18;100.00
1616;BME280;801;47.982;7.810;2022-10-31T07:45:10;99010.69;;;14.31;100.00
1616;BME280;801;47.982;7.810;2022-10-31T07:47:41;99012.34;;;14.22;100.00
1616;BME280;801;47.982;7.810;2022-10-31T07:50:09;99014.50;;;14.15;100.00
1616;BME280;801;47.982;7.810;2022-10-31T07:52:36;99013.69;;;14.20;100.00
1616;BME280;801;47.982;7.810;2022-10-31T07:55:03;99009.09;;;14.25;100.00
1616;BME280;801;47.982;7.810;2022-10-31T07:57:30;99005.28;;;14.31;100.00
1616;BME280;801;47.982;7.810;2022-10-31T07:59:58;99008.47;;;14.44;100.00
1616;BME280;801;47.982;7.810;2022-10-31T08:02:25;99003.84;;;14.60;100.00
1616;BME280;801;47.982;7.810;2022-10-31T08:04:51;99004.66;;;14.65;100.00
1616;BME280;801;47.982;7.810;2022-10-31T08:07:18;99009.28;;;14.65;100.00
1616;BME280;801;47.982;7.810;2022-10-31T08:09:44;99006.22;;;14.77;100.00
1616;BME280;801;47.982;7.810;2022-10-31T08:12:11;99009.22;;;14.75;100.00
1616;BME280;801;47.982;7.810;2022-10-31T08:14:38;99007.22;;;14.91;100.00
1616;BME280;801;47.982;7.810;2022-10-31T08:17:05;99009.91;;;15.01;100.00
1616;BME280;801;47.982;7.810;2022-10-31T08:19:32;98997.66;;;15.09;100.00
1616;BME280;801;47.982;7.810;2022-10-31T08:21:58;99009.78;;;15.22;100.00
1616;BME280;801;47.982;7.810;2022-10-31T08:24:25;99006.44;;;15.35;100.00
1616;BME280;801;47.982;7.810;2022-10-31T08:26:52;99011.00;;;14.95;100.00
1616;BME280;801;47.982;7.810;2022-10-31T08:29:18;99008.50;;;15.09;100.00
1616;BME280;801;47.982;7.810;2022-10-31T08:31:45;99001.59;;;15.32;100.00
1616;BME280;801;47.982;7.810;2022-10-31T08:34:13;98998.31;;;15.35;100.00
1616;BME280;801;47.982;7.810;2022-10-31T08:36:39;98998.28;;;15.40;100.00
1616;BME280;801;47.982;7.810;2022-10-31T08:39:07;98994.97;;;15.48;100.00
1616;BME280;801;47.982;7.810;2022-10-31T08:41:33;98984.72;;;15.40;100.00
1616;BME280;801;47.982;7.810;2022-10-31T08:44:00;98992.25;;;15.48;100.00
1616;BME280;801;47.982;7.810;2022-10-31T08:46:27;98985.72;;;15.54;100.00
1616;BME280;801;47.982;7.810;2022-10-31T08:48:53;98989.75;;;15.57;100.00
1616;BME280;801;47.982;7.810;2022-10-31T08:51:21;98986.16;;;15.67;100.00
1616;BME280;801;47.982;7.810;2022-10-31T08:53:48;98974.75;;;15.70;100.00
1616;BME280;801;47.982;7.810;2022-10-31T08:56:14;98975.47;;;15.81;100.00
1616;BME280;801;47.982;7.810;2022-10-31T08:58:41;98973.81;;;15.85;100.00
1616;BME280;801;47.982;7.810;2022-10-31T09:01:07;98963.63;;;15.76;100.00
1616;BME280;801;47.982;7.810;2022-10-31T09:03:34;98967.53;;;15.89;100.00
1616;BME280;801;47.982;7.810;2022-10-31T09:06:02;98965.28;;;16.02;100.00
1616;BME280;801;47.982;7.810;2022-10-31T09:08:32;98963.88;;;16.04;100.00
1616;BME280;801;47.982;7.810;2022-10-31T09:10:59;98962.56;;;16.02;100.00
1616;BME280;801;47.982;7.810;2022-10-31T09:13:26;98949.34;;;15.95;100.00
1616;BME280;801;47.982;7.810;2022-10-31T09:15:52;98953.91;;;16.24;100.00
1616;BME280;801;47.982;7.810;2022-10-31T09:18:21;98948.94;;;16.31;100.00
1616;BME280;801;47.982;7.810;2022-10-31T09:20:48;98942.41;;;16.32;100.00
1616;BME280;801;47.982;7.810;2022-10-31T09:23:17;98940.47;;;16.37;100.00
1616;BME280;801;47.982;7.810;2022-10-31T09:25:45;98937.69;;;16.43;100.00
1616;BME280;801;47.982;7.810;2022-10-31T09:28:14;98934.34;;;16.51;100.00
1616;BME280;801;47.982;7.810;2022-10-31T09:30:41;98935.53;;;16.64;100.00
1616;BME280;801;47.982;7.810;2022-10-31T09:33:10;98933.28;;;16.47;100.00
1616;BME280;801;47.982;7.810;2022-10-31T09:35:37;98938.19;;;16.45;100.00
1616;BME280;801;47.982;7.810;2022-10-31T09:38:05;98944.22;;;16.42;100.00
1616;BME280;801;47.982;7.810;2022-10-31T09:40:34;98946.69;;;16.14;100.00
1616;BME280;801;47.982;7.810;2022-10-31T09:43:12;98944.81;;;16.14;100.00
1616;BME280;801;47.982;7.810;2022-10-31T09:45:46;98948.06;;;16.11;100.00
1616;BME280;801;47.982;7.810;2022-10-31T09:48:26;98932.81;;;15.96;100.00
1616;BME280;801;47.982;7.810;2022-10-31T09:50:58;98945.78;;;16.00;100.00
1616;BME280;801;47.982;7.810;2022-10-31T09:53:30;98952.50;;;16.02;100.00
1616;BME280;801;47.982;7.810;2022-10-31T09:55:59;98950.66;;;15.97;100.00
1616;BME280;801;47.982;7.810;2022-10-31T09:58:30;98951.91;;;16.10;100.00
1616;BME280;801;47.982;7.810;2022-10-31T10:00:59;98953.75;;;16.15;100.00
1616;BME280;801;47.982;7.810;2022-10-31T10:03:31;98950.25;;;16.09;100.00
1616;BME280;801;47.982;7.810;2022-10-31T10:06:06;98953.41;;;16.22;100.00
1616;BME280;801;47.982;7.810;2022-10-31T10:08:35;98947.53;;;16.14;100.00
1616;BME280;801;47.982;7.810;2022-10-31T10:11:12;98948.25;;;16.20;100.00
1616;BME280;801;47.982;7.810;2022-10-31T10:13:54;98945.81;;;16.43;100.00
1616;BME280;801;47.982;7.810;2022-10-31T10:16:34;98941.25;;;16.62;100.00
1616;BME280;801;47.982;7.810;2022-10-31T10:19:14;98934.28;;;16.32;100.00
1616;BME280;801;47.982;7.810;2022-10-31T10:21:48;98931.91;;;16.25;100.00
1616;BME280;801;47.982;7.810;2022-10-31T10:24:30;98930.22;;;16.34;100.00
1616;BME280;801;47.982;7.810;2022-10-31T10:27:08;98924.88;;;16.48;100.00
1616;BME280;801;47.982;7.810;2022-10-31T10:29:44;98920.94;;;16.16;100.00
1616;BME280;801;47.982;7.810;2022-10-31T10:32:18;98923.31;;;16.42;100.00
1616;BME280;801;47.982;7.810;2022-10-31T10:34:50;98922.06;;;16.10;100.00
1616;BME280;801;47.982;7.810;2022-10-31T10:37:24;98932.16;;;16.05;100.00
1616;BME280;801;47.982;7.810;2022-10-31T10:39:55;98942.66;;;16.11;100.00
1616;BME280;801;47.982;7.810;2022-10-31T10:42:25;98939.91;;;16.16;100.00
1616;BME280;801;47.982;7.810;2022-10-31T10:45:17;98941.91;;;16.06;100.00
1616;BME280;801;47.982;7.810;2022-10-31T10:48:06;98947.19;;;16.21;100.00
1616;BME280;801;47.982;7.810;2022-10-31T10:50:39;98949.56;;;16.23;100.00
1616;BME280;801;47.982;7.810;2022-10-31T10:53:16;98936.44;;;16.11;100.00
1616;BME280;801;47.982;7.810;2022-10-31T10:55:51;98934.66;;;16.01;100.00
1616;BME280;801;47.982;7.810;2022-10-31T10:58:20;98953.13;;;16.23;100.00
1616;BME280;801;47.982;7.810;2022-10-31T11:00:54;98956.22;;;16.11;100.00
1616;BME280;801;47.982;7.810;2022-10-31T11:03:21;98943.00;;;16.05;100.00
1616;BME280;801;47.982;7.810;2022-10-31T11:05:50;98936.19;;;16.31;100.00
1616;BME280;801;47.982;7.810;2022-10-31T11:08:24;98932.50;;;16.22;100.00
1616;BME280;801;47.982;7.810;2022-10-31T11:11:02;98916.13;;;16.32;100.00
1616;BME280;801;47.982;7.810;2022-10-31T11:13:30;98909.47;;;16.44;100.00
1616;BME280;801;47.982;7.810;2022-10-31T11:16:02;98909.25;;;16.40;100.00
1616;BME280;801;47.982;7.810;2022-10-31T11:18:31;98896.06;;;17.09;100.00
1616;BME280;801;47.982;7.810;2022-10-31T11:21:00;98896.16;;;17.37;100.00
1616;BME280;801;47.982;7.810;2022-10-31T11:23:28;98886.38;;;17.55;100.00
1616;BME280;801;47.982;7.810;2022-10-31T11:25:56;98871.78;;;17.78;100.00
1616;BME280;801;47.982;7.810;2022-10-31T11:28:24;98866.28;;;18.25;100.00
1616;BME280;801;47.982;7.810;2022-10-31T11:30:53;98860.94;;;18.34;100.00
1616;BME280;801;47.982;7.810;2022-10-31T11:33:33;98863.47;;;18.80;100.00
1616;BME280;801;47.982;7.810;2022-10-31T11:36:01;98851.53;;;20.15;100.00
1616;BME280;801;47.982;7.810;2022-10-31T11:38:33;98839.75;;;19.57;100.00
1616;BME280;801;47.982;7.810;2022-10-31T11:41:08;98835.63;;;19.68;100.00
1616;BME280;801;47.982;7.810;2022-10-31T11:43:38;98832.13;;;19.37;100.00
1616;BME280;801;47.982;7.810;2022-10-31T11:46:09;98836.81;;;19.45;100.00
1616;BME280;801;47.982;7.810;2022-10-31T11:48:38;98839.59;;;19.94;100.00
1616;BME280;801;47.982;7.810;2022-10-31T11:51:04;98834.94;;;20.69;100.00
1616;BME280;801;47.982;7.810;2022-10-31T11:53:33;98818.88;;;19.84;100.00
1616;BME280;801;47.982;7.810;2022-10-31T11:56:09;98808.88;;;20.28;100.00
1616;BME280;801;47.982;7.810;2022-10-31T11:58:36;98798.28;;;20.26;100.00
1616;BME280;801;47.982;7.810;2022-10-31T12:01:03;98794.41;;;21.70;100.00
1616;BME280;801;47.982;7.810;2022-10-31T12:03:51;98797.69;;;22.44;96.28
1616;BME280;801;47.982;7.810;2022-10-31T12:06:22;98788.19;;;23.29;90.46
1616;BME280;801;47.982;7.810;2022-10-31T12:08:49;98784.97;;;23.15;89.24
1616;BME280;801;47.982;7.810;2022-10-31T12:11:27;98775.00;;;23.80;82.26
1616;BME280;801;47.982;7.810;2022-10-31T12:14:06;98773.94;;;24.10;81.84
1616;BME280;801;47.982;7.810;2022-10-31T12:16:39;98771.81;;;23.78;77.29
1616;BME280;801;47.982;7.810;2022-10-31T12:19:16;98777.19;;;24.40;73.44
1616;BME280;801;47.982;7.810;2022-10-31T12:21:59;98784.25;;;24.00;71.56
1616;BME280;801;47.982;7.810;2022-10-31T12:24:57;98784.72;;;22.53;83.12
1616;BME280;801;47.982;7.810;2022-10-31T12:27:36;98777.09;;;22.92;81.67
1616;BME280;801;47.982;7.810;2022-10-31T12:30:19;98777.34;;;23.20;79.16
1616;BME280;801;47.982;7.810;2022-10-31T12:33:02;98764.50;;;22.79;82.18
1616;BME280;801;47.982;7.810;2022-10-31T12:35:40;98768.88;;;23.26;78.19
1616;BME280;801;47.982;7.810;2022-10-31T12:38:22;98757.38;;;23.69;75.50
1616;BME280;801;47.982;7.810;2022-10-31T12:41:07;98745.78;;;24.13;74.39
1616;BME280;801;47.982;7.810;2022-10-31T12:43:46;98739.50;;;24.65;71.44
1616;BME280;801;47.982;7.810;2022-10-31T12:46:21;98739.63;;;25.00;68.29
1616;BME280;801;47.982;7.810;2022-10-31T12:49:07;98743.94;;;24.70;69.65
1616;BME280;801;47.982;7.810;2022-10-31T12:51:47;98732.09;;;24.53;69.59
1616;BME280;801;47.982;7.810;2022-10-31T12:54:39;98734.19;;;25.48;64.39
1616;BME280;801;47.982;7.810;2022-10-31T12:57:16;98725.00;;;23.99;71.15
1616;BME280;801;47.982;7.810;2022-10-31T12:59:49;98717.22;;;24.54;73.10
1616;BME280;801;47.982;7.810;2022-10-31T13:02:21;98719.66;;;23.66;77.29
1616;BME280;801;47.982;7.810;2022-10-31T13:04:55;98713.06;;;22.09;83.45
1616;BME280;801;47.982;7.810;2022-10-31T13:07:29;98714.84;;;22.05;87.87
1616;BME280;801;47.982;7.810;2022-10-31T13:10:01;98704.44;;;21.48;93.36
1616;BME280;801;47.982;7.810;2022-10-31T13:12:32;98701.53;;;21.06;96.17
1616;BME280;801;47.982;7.810;2022-10-31T13:15:04;98701.66;;;21.09;96.33
1616;BME280;801;47.982;7.810;2022-10-31T13:17:35;98692.66;;;21.18;96.00
1616;BME280;801;47.982;7.810;2022-10-31T13:20:20;98698.19;;;21.00;99.89
1616;BME280;801;47.982;7.810;2022-10-31T13:22:52;98702.09;;;20.56;100.00
1616;BME280;801;47.982;7.810;2022-10-31T13:25:22;98696.47;;;20.78;100.00
1616;BME280;801;47.982;7.810;2022-10-31T13:27:53;98688.34;;;21.08;100.00
1616;BME280;801;47.982;7.810;2022-10-31T13:30:22;98677.72;;;21.74;95.58
1616;BME280;801;47.982;7.810;2022-10-31T13:32:52;98681.88;;;21.81;95.04
1616;BME280;801;47.982;7.810;2022-10-31T13:35:26;98676.38;;;22.10;91.95
1616;BME280;801;47.982;7.810;2022-10-31T13:38:12;98670.66;;;22.70;88.13
1616;BME280;801;47.982;7.810;2022-10-31T13:40:46;98671.84;;;22.48;89.04
1616;BME280;801;47.982;7.810;2022-10-31T13:43:23;98665.22;;;22.82;88.11
1616;BME280;801;47.982;7.810;2022-10-31T13:45:54;98652.72;;;22.27;92.12
1616;BME280;801;47.982;7.810;2022-10-31T13:48:40;98649.31;;;21.88;97.13
1616;BME280;801;47.982;7.810;2022-10-31T13:51:09;98644.91;;;22.37;93.94
1616;BME280;801;47.982;7.810;2022-10-31T13:53:44;98645.19;;;22.24;93.55
1616;BME280;801;47.982;7.810;2022-10-31T13:56:17;98634.59;;;21.80;96.43
1616;BME280;801;47.982;7.810;2022-10-31T13:58:57;98637.53;;;21.75;100.00
1616;BME280;801;47.982;7.810;2022-10-31T14:01:25;98628.06;;;21.72;100.00
1616;BME280;801;47.982;7.810;2022-10-31T14:04:00;98621.34;;;20.55;100.00
1616;BME280;801;47.982;7.810;2022-10-31T14:06:39;98619.09;;;21.33;100.00
1616;BME280;801;47.982;7.810;2022-10-31T14:09:19;98606.22;;;21.34;100.00
1616;BME280;801;47.982;7.810;2022-10-31T14:11:47;98606.13;;;21.30;100.00
1616;BME280;801;47.982;7.810;2022-10-31T14:14:15;98593.69;;;21.42;100.00
1616;BME280;801;47.982;7.810;2022-10-31T14:16:43;98593.84;;;21.07;100.00
1616;BME280;801;47.982;7.810;2022-10-31T14:19:14;98571.16;;;21.66;100.00
1616;BME280;801;47.982;7.810;2022-10-31T14:21:43;98577.25;;;22.05;100.00
1616;BME280;801;47.982;7.810;2022-10-31T14:24:28;98571.72;;;22.71;98.85
1616;BME280;801;47.982;7.810;2022-10-31T14:26:57;98577.09;;;23.17;92.88
1616;BME280;801;47.982;7.810;2022-10-31T14:29:26;98579.34;;;23.52;90.29
1616;BME280;801;47.982;7.810;2022-10-31T14:31:56;98585.69;;;23.68;85.04
1616;BME280;801;47.982;7.810;2022-10-31T14:34:29;98584.97;;;22.94;86.81
1616;BME280;801;47.982;7.810;2022-10-31T14:37:20;98580.13;;;22.42;91.46
1616;BME280;801;47.982;7.810;2022-10-31T14:40:08;98583.81;;;21.91;95.91
1616;BME280;801;47.982;7.810;2022-10-31T14:42:49;98577.00;;;21.76;99.00
1616;BME280;801;47.982;7.810;2022-10-31T14:45:25;98586.03;;;21.56;100.00
1616;BME280;801;47.982;7.810;2022-10-31T14:48:03;98588.59;;;21.02;100.00
1616;BME280;801;47.982;7.810;2022-10-31T14:50:48;98590.09;;;20.90;100.00
1616;BME280;801;47.982;7.810;2022-10-31T14:53:20;98583.97;;;20.93;100.00
1616;BME280;801;47.982;7.810;2022-10-31T14:55:53;98588.31;;;20.94;100.00
1616;BME280;801;47.982;7.810;2022-10-31T14:58:22;98599.69;;;20.58;100.00
1616;BME280;801;47.982;7.810;2022-10-31T15:00:54;98588.63;;;20.37;100.00
1616;BME280;801;47.982;7.810;2022-10-31T15:03:26;98596.56;;;20.13;100.00
1616;BME280;801;47.982;7.810;2022-10-31T15:06:09;98596.38;;;20.18;100.00
1616;BME280;801;47.982;7.810;2022-10-31T15:08:39;98589.94;;;20.31;100.00
1616;BME280;801;47.982;7.810;2022-10-31T15:11:13;98593.25;;;20.63;100.00
1616;BME280;801;47.982;7.810;2022-10-31T15:13:44;98582.44;;;20.75;100.00
1616;BME280;801;47.982;7.810;2022-10-31T15:16:13;98586.31;;;20.01;100.00
1616;BME280;801;47.982;7.810;2022-10-31T15:18:47;98585.66;;;19.95;100.00
1616;BME280;801;47.982;7.810;2022-10-31T15:21:14;98588.25;;;20.65;100.00
1616;BME280;801;47.982;7.810;2022-10-31T15:23:42;98590.19;;;20.56;100.00
1616;BME280;801;47.982;7.810;2022-10-31T15:26:17;98569.94;;;19.92;100.00
1616;BME280;801;47.982;7.810;2022-10-31T15:28:44;98571.72;;;19.88;100.00
1616;BME280;801;47.982;7.810;2022-10-31T15:31:15;98585.34;;;19.88;100.00
1616;BME280;801;47.982;7.810;2022-10-31T15:33:47;98586.81;;;19.77;100.00
1616;BME280;801;47.982;7.810;2022-10-31T15:36:19;98591.13;;;19.78;100.00
1616;BME280;801;47.982;7.810;2022-10-31T15:38:46;98586.44;;;19.52;100.00
1616;BME280;801;47.982;7.810;2022-10-31T15:41:23;98587.19;;;19.26;100.00
1616;BME280;801;47.982;7.810;2022-10-31T15:43:51;98580.06;;;19.74;100.00
1616;BME280;801;47.982;7.810;2022-10-31T15:46:18;98581.97;;;19.56;100.00
1616;BME280;801;47.982;7.810;2022-10-31T15:48:45;98587.59;;;18.94;100.00
1616;BME280;801;47.982;7.810;2022-10-31T15:51:13;98590.56;;;19.23;100.00
1616;BME280;801;47.982;7.810;2022-10-31T15:53:43;98591.75;;;19.00;100.00
1616;BME280;801;47.982;7.810;2022-10-31T15:56:13;98586.47;;;18.95;100.00
1616;BME280;801;47.982;7.810;2022-10-31T15:58:48;98585.91;;;18.44;100.00
1616;BME280;801;47.982;7.810;2022-10-31T16:01:21;98584.91;;;19.02;100.00
1616;BME280;801;47.982;7.810;2022-10-31T16:03:58;98592.66;;;19.35;100.00
1616;BME280;801;47.982;7.810;2022-10-31T16:06:25;98593.22;;;19.06;100.00
1616;BME280;801;47.982;7.810;2022-10-31T16:08:52;98603.13;;;18.93;100.00
1616;BME280;801;47.982;7.810;2022-10-31T16:11:23;98598.81;;;18.92;100.00
1616;BME280;801;47.982;7.810;2022-10-31T16:13:58;98607.94;;;18.65;100.00
1616;BME280;801;47.982;7.810;2022-10-31T16:16:26;98601.13;;;18.76;100.00
1616;BME280;801;47.982;7.810;2022-10-31T16:18:53;98609.91;;;17.97;100.00
1616;BME280;801;47.982;7.810;2022-10-31T16:21:26;98607.72;;;18.53;100.00
1616;BME280;801;47.982;7.810;2022-10-31T16:23:58;98606.28;;;18.78;100.00
1616;BME280;801;47.982;7.810;2022-10-31T16:26:26;98606.88;;;18.75;100.00
1616;BME280;801;47.982;7.810;2022-10-31T16:28:56;98606.88;;;18.75;100.00
1616;BME280;801;47.982;7.810;2022-10-31T16:31:29;98608.50;;;18.44;100.00
1616;BME280;801;47.982;7.810;2022-10-31T16:34:04;98605.97;;;18.25;100.00
1616;BME280;801;47.982;7.810;2022-10-31T16:36:32;98620.38;;;18.03;100.00
1616;BME280;801;47.982;7.810;2022-10-31T16:39:01;98629.38;;;18.13;100.00
1616;BME280;801;47.982;7.810;2022-10-31T16:41:28;98623.28;;;18.07;100.00
1616;BME280;801;47.982;7.810;2022-10-31T16:43:56;98619.44;;;18.08;100.00
1616;BME280;801;47.982;7.810;2022-10-31T16:46:24;98609.19;;;18.05;100.00
1616;BME280;801;47.982;7.810;2022-10-31T16:48:51;98609.44;;;17.81;100.00
1616;BME280;801;47.982;7.810;2022-10-31T16:51:18;98606.22;;;17.79;100.00
1616;BME280;801;47.982;7.810;2022-10-31T16:53:45;98607.41;;;17.64;100.00
1616;BME280;801;47.982;7.810;2022-10-31T16:56:14;98614.22;;;17.61;100.00
1616;BME280;801;47.982;7.810;2022-10-31T16:58:41;98617.53;;;17.86;100.00
1616;BME280;801;47.982;7.810;2022-10-31T17:01:10;98619.31;;;17.77;100.00
1616;BME280;801;47.982;7.810;2022-10-31T17:03:37;98617.44;;;17.63;100.00
1616;BME280;801;47.982;7.810;2022-10-31T17:06:04;98619.81;;;17.42;100.00
1616;BME280;801;47.982;7.810;2022-10-31T17:08:31;98630.47;;;17.39;100.00
1616;BME280;801;47.982;7.810;2022-10-31T17:10:58;98626.94;;;17.52;100.00